Terminal Aerodrome Forecast
Issued by NWS St Louis, MO

Home | Current Version | Previous Version | Text Only | Print | Product List | Glossary On
Versions: 1 2 3 4 5 6 7 8 9 10 11 12 13 14 15 16 17 18 19 20
000
FTUS43 KLSX 281000 AAB
TAFCOU
TAF AMD
KCOU 281053Z 2811/2906 11006KT P6SM OVC050
      TEMPO 2811/2815 5SM -SN BKN025
     FM281500 13008KT P6SM BKN040
     FM290300 14010KT P6SM SCT250=

USA.gov is the U.S. government's official web portal to all federal, state and local government web resources and services.